createdAt,value
2023-02-11T00:00:24.317Z,42.05
2023-02-11T00:03:11.991Z,44.50
2023-02-11T00:05:39.402Z,39.08
2023-02-11T00:08:07.172Z,37.95
2023-02-11T00:10:34.626Z,42.60
2023-02-11T00:13:02.323Z,36.15
2023-02-11T00:15:29.653Z,39.78
2023-02-11T00:17:57.364Z,41.47
2023-02-11T00:20:24.714Z,46.83
2023-02-11T00:22:52.367Z,38.92
2023-02-11T00:25:19.781Z,47.30
2023-02-11T00:27:47.455Z,41.60
2023-02-11T00:30:14.885Z,40.72
2023-02-11T00:32:42.511Z,44.13
2023-02-11T00:35:09.847Z,43.28
2023-02-11T00:37:37.546Z,48.55
2023-02-11T00:40:06.838Z,39.47
2023-02-11T00:42:34.689Z,31.55
2023-02-11T00:45:02.221Z,44.10
2023-02-11T00:47:29.918Z,44.85
2023-02-11T00:49:57.315Z,39.65
2023-02-11T00:52:24.933Z,42.83
2023-02-11T00:54:52.448Z,42.88
2023-02-11T00:57:20.104Z,42.88
2023-02-11T00:59:47.510Z,37.53
2023-02-11T01:02:15.221Z,39.13
2023-02-11T01:04:42.685Z,45.00
2023-02-11T01:07:10.391Z,42.42
2023-02-11T01:09:38.323Z,37.05
2023-02-11T01:12:06.149Z,39.38
2023-02-11T01:14:33.552Z,44.90
2023-02-11T01:17:01.241Z,42.08
2023-02-11T01:19:28.586Z,36.70
2023-02-11T01:21:56.239Z,45.20
2023-02-11T01:24:23.611Z,40.90
2023-02-11T01:26:51.240Z,43.30
2023-02-11T01:29:18.799Z,43.05
2023-02-11T01:31:46.655Z,49.05
2023-02-11T01:34:14.148Z,40.67
2023-02-11T01:37:00.401Z,40.83
2023-02-11T01:39:46.154Z,41.88
2023-02-11T01:42:32.740Z,44.70
2023-02-11T01:45:37.046Z,45.40
2023-02-11T01:48:04.839Z,46.65
2023-02-11T01:50:32.399Z,46.00
2023-02-11T01:53:00.064Z,44.00
2023-02-11T01:55:27.429Z,42.50
2023-02-11T01:57:57.088Z,47.88
2023-02-11T02:00:26.353Z,44.00
2023-02-11T02:02:56.800Z,41.10
2023-02-11T02:05:36.214Z,45.55
2023-02-11T02:08:04.104Z,66.60
2023-02-11T02:10:33.984Z,59.42
2023-02-11T02:13:01.600Z,45.17
2023-02-11T02:15:36.366Z,42.08
2023-02-11T02:18:18.943Z,50.85
2023-02-11T02:20:46.303Z,46.55
2023-02-11T02:23:21.790Z,49.60
2023-02-11T02:26:09.414Z,50.22
2023-02-11T02:28:49.364Z,41.33
2023-02-11T02:31:45.890Z,40.60
2023-02-11T02:34:22.997Z,42.75
2023-02-11T02:36:53.085Z,39.08
2023-02-11T02:39:24.097Z,42.67
2023-02-11T02:41:52.017Z,35.35
2023-02-11T02:44:20.358Z,50.58
2023-02-11T02:46:47.996Z,38.42
2023-02-11T02:49:16.381Z,39.95
2023-02-11T02:51:54.631Z,37.17
2023-02-11T02:54:40.977Z,37.33
2023-02-11T02:57:14.095Z,36.00
2023-02-11T03:03:09.994Z,35.90
2023-02-11T03:09:11.361Z,39.20
2023-02-11T03:11:39.869Z,35.08
2023-02-11T03:14:10.532Z,34.05
2023-02-11T03:16:38.838Z,35.20
2023-02-11T03:19:10.386Z,35.08
2023-02-11T03:21:38.753Z,35.07
2023-02-11T03:24:08.504Z,31.75
2023-02-11T03:26:38.357Z,36.28
2023-02-11T03:29:08.765Z,40.65
2023-02-11T03:32:02.388Z,36.33
2023-02-11T03:34:32.458Z,40.40
2023-02-11T03:37:02.618Z,36.17
2023-02-11T03:39:50.563Z,34.70
2023-02-11T03:46:01.322Z,38.63
2023-02-11T03:48:32.810Z,38.28
2023-02-11T03:51:02.682Z,36.03
2023-02-11T03:53:30.075Z,33.75
2023-02-11T03:55:59.985Z,33.35
2023-02-11T03:58:27.448Z,36.00
2023-02-11T04:00:55.224Z,36.03
2023-02-11T04:03:22.695Z,39.95
2023-02-11T04:05:50.604Z,32.40
2023-02-11T04:08:18.126Z,33.28
2023-02-11T04:10:45.765Z,32.97
2023-02-11T04:13:13.183Z,30.48
2023-02-11T04:15:40.878Z,30.83
2023-02-11T04:18:08.370Z,29.65
2023-02-11T04:20:36.089Z,30.55
2023-02-11T04:23:03.557Z,30.77
2023-02-11T04:25:31.260Z,34.15
2023-02-11T04:27:58.703Z,32.60
2023-02-11T04:30:26.469Z,34.33
2023-02-11T04:32:53.818Z,31.13
2023-02-11T04:35:21.651Z,32.70
2023-02-11T04:37:49.028Z,28.88
2023-02-11T04:40:16.775Z,36.50
2023-02-11T04:42:44.181Z,26.88
2023-02-11T04:45:11.885Z,33.72
2023-02-11T04:47:39.257Z,33.38
2023-02-11T04:50:06.908Z,36.85
2023-02-11T04:52:34.462Z,34.35
2023-02-11T04:55:02.446Z,28.88
2023-02-11T04:57:29.788Z,32.40
2023-02-11T04:59:57.663Z,32.97
2023-02-11T05:02:25.133Z,32.53
2023-02-11T05:04:52.803Z,32.33
2023-02-11T05:07:20.227Z,37.05
2023-02-11T05:09:47.919Z,31.90
2023-02-11T05:12:15.458Z,30.17
2023-02-11T05:14:43.169Z,33.28
2023-02-11T05:17:10.520Z,35.85
2023-02-11T05:19:38.359Z,31.25
2023-02-11T05:22:05.760Z,37.80
2023-02-11T05:24:33.977Z,37.33
2023-02-11T05:27:01.642Z,35.40
2023-02-11T05:29:29.523Z,33.78
2023-02-11T05:31:58.216Z,33.70
2023-02-11T05:34:26.017Z,30.35
2023-02-11T05:36:53.431Z,32.67
2023-02-11T05:39:21.288Z,35.55
2023-02-11T05:41:48.674Z,30.75
2023-02-11T05:44:16.404Z,31.52
2023-02-11T05:46:43.932Z,37.28
2023-02-11T05:49:11.815Z,32.50
2023-02-11T05:51:39.313Z,35.10
2023-02-11T05:54:07.267Z,36.70
2023-02-11T05:56:34.701Z,52.53
2023-02-11T05:59:02.338Z,32.50
2023-02-11T06:01:29.955Z,32.22
2023-02-11T06:03:57.664Z,31.75
2023-02-11T06:06:25.300Z,35.72
2023-02-11T06:08:53.052Z,29.52
2023-02-11T06:11:20.479Z,31.55
2023-02-11T06:13:48.189Z,31.50
2023-02-11T06:16:15.759Z,35.60
2023-02-11T06:18:43.461Z,31.92
2023-02-11T06:21:11.242Z,34.22
2023-02-11T06:23:39.223Z,32.97
2023-02-11T06:26:08.543Z,32.35
2023-02-11T06:28:36.349Z,31.83
2023-02-11T06:31:06.806Z,31.45
2023-02-11T06:33:35.198Z,31.88
2023-02-11T06:36:03.174Z,33.17
2023-02-11T06:38:30.825Z,32.17
2023-02-11T06:40:58.274Z,33.83
2023-02-11T06:43:25.942Z,35.65
2023-02-11T06:45:54.170Z,29.98
2023-02-11T06:48:22.108Z,32.25
2023-02-11T06:50:49.432Z,34.05
2023-02-11T06:53:17.121Z,27.67
2023-02-11T06:55:44.571Z,30.08
2023-02-11T06:58:12.265Z,29.77
2023-02-11T07:00:39.616Z,29.60
2023-02-11T07:06:32.814Z,36.83
2023-02-11T07:09:00.500Z,32.78
2023-02-11T07:11:29.238Z,28.85
2023-02-11T07:14:00.061Z,34.70
2023-02-11T07:16:27.766Z,31.77
2023-02-11T07:18:55.565Z,33.22
2023-02-11T07:21:23.271Z,30.42
2023-02-11T07:23:51.093Z,25.92
2023-02-11T07:26:20.294Z,28.60
2023-02-11T07:28:47.978Z,26.15
2023-02-11T07:31:16.651Z,33.47
2023-02-11T07:33:44.617Z,29.00
2023-02-11T07:36:13.377Z,23.73
2023-02-11T07:38:41.039Z,29.15
2023-02-11T07:41:12.534Z,30.48
2023-02-11T07:43:40.930Z,29.45
2023-02-11T07:46:09.975Z,27.42
2023-02-11T07:48:37.861Z,25.05
2023-02-11T07:51:08.072Z,28.80
2023-02-11T07:53:35.824Z,29.77
2023-02-11T07:56:04.018Z,36.38
2023-02-11T07:58:32.248Z,31.38
2023-02-11T08:01:03.904Z,30.85
2023-02-11T08:03:31.923Z,33.72
2023-02-11T08:06:02.778Z,30.25
2023-02-11T08:08:30.450Z,28.67
2023-02-11T08:10:59.972Z,28.52
2023-02-11T08:13:38.960Z,38.20
2023-02-11T08:16:06.937Z,32.20
2023-02-11T08:18:36.397Z,27.95
2023-02-11T08:21:07.396Z,32.10
2023-02-11T08:23:38.662Z,29.80
2023-02-11T08:26:06.920Z,27.58
2023-02-11T08:28:35.950Z,32.58
2023-02-11T08:31:06.832Z,33.47
2023-02-11T08:33:34.610Z,27.52
2023-02-11T08:36:02.068Z,25.20
2023-02-11T08:38:29.836Z,31.15
2023-02-11T08:40:59.446Z,30.35
2023-02-11T08:43:27.123Z,39.20
2023-02-11T08:45:54.644Z,38.90
2023-02-11T08:48:22.519Z,30.05
2023-02-11T08:50:52.561Z,35.17
2023-02-11T08:53:20.319Z,33.15
2023-02-11T08:55:48.650Z,34.03
2023-02-11T08:58:19.086Z,32.05
2023-02-11T09:00:46.904Z,30.63
2023-02-11T09:03:15.156Z,30.60
2023-02-11T09:05:43.266Z,34.15
2023-02-11T09:08:11.301Z,29.38
2023-02-11T09:10:39.056Z,28.73
2023-02-11T09:13:07.488Z,33.10
2023-02-11T09:15:35.100Z,29.55
2023-02-11T09:18:04.400Z,32.78
2023-02-11T09:20:31.974Z,31.23
2023-02-11T09:22:59.742Z,28.52
2023-02-11T09:25:27.187Z,32.25
2023-02-11T09:27:54.983Z,29.90
2023-02-11T09:30:22.572Z,32.83
2023-02-11T09:32:50.467Z,31.30
2023-02-11T09:35:17.982Z,32.08
2023-02-11T09:37:45.705Z,30.17
2023-02-11T09:40:14.473Z,32.00
2023-02-11T09:42:50.746Z,30.40
2023-02-11T09:45:25.365Z,32.60
2023-02-11T09:47:57.789Z,22.98
2023-02-11T09:50:25.299Z,24.40
2023-02-11T09:53:02.045Z,26.67
2023-02-11T09:55:29.482Z,25.30
2023-02-11T09:57:57.720Z,23.90
2023-02-11T10:00:37.304Z,24.63
2023-02-11T10:03:23.514Z,21.95
2023-02-11T10:05:50.916Z,20.85
2023-02-11T10:08:24.517Z,23.02
2023-02-11T10:10:54.062Z,21.85
2023-02-11T10:13:21.889Z,22.63
2023-02-11T10:15:49.287Z,19.63
2023-02-11T10:18:19.719Z,20.88
2023-02-11T10:21:05.574Z,22.52
2023-02-11T10:23:40.140Z,22.88
2023-02-11T10:26:16.081Z,23.35
2023-02-11T10:28:48.453Z,22.08
2023-02-11T10:31:25.820Z,23.77
2023-02-11T10:34:04.376Z,23.58
2023-02-11T10:36:36.436Z,21.23
2023-02-11T10:41:33.801Z,24.08
2023-02-11T10:44:01.517Z,26.15
2023-02-11T10:46:33.205Z,22.92
2023-02-11T10:49:00.874Z,20.70
2023-02-11T10:51:29.834Z,22.85
2023-02-11T10:54:06.414Z,29.02
2023-02-11T10:56:35.395Z,27.00
2023-02-11T10:59:41.545Z,21.17
2023-02-11T11:02:23.742Z,25.05
2023-02-11T11:07:18.784Z,20.95
2023-02-11T11:09:53.821Z,21.90
2023-02-11T11:12:33.124Z,27.02
2023-02-11T11:15:02.611Z,22.45
2023-02-11T11:17:30.055Z,22.88
2023-02-11T11:20:16.548Z,24.05
2023-02-11T11:22:44.163Z,24.40
2023-02-11T11:25:20.995Z,28.65
2023-02-11T11:27:49.472Z,26.08
2023-02-11T11:30:17.401Z,26.95
2023-02-11T11:32:44.966Z,27.50
2023-02-11T11:35:26.119Z,28.23
2023-02-11T11:38:03.898Z,24.75
2023-02-11T11:40:33.114Z,26.77
2023-02-11T11:43:06.485Z,23.80
2023-02-11T11:45:34.444Z,22.23
2023-02-11T11:51:01.146Z,24.58
2023-02-11T11:53:37.457Z,24.63
2023-02-11T11:56:16.413Z,23.58
2023-02-11T11:58:43.922Z,22.40
2023-02-11T12:01:17.618Z,24.77
2023-02-11T12:03:48.001Z,24.63
2023-02-11T12:06:15.777Z,26.38
2023-02-11T12:08:55.588Z,26.65
2023-02-11T12:11:32.437Z,20.33
2023-02-11T12:14:06.243Z,26.80
2023-02-11T12:16:43.273Z,22.30
2023-02-11T12:19:19.211Z,24.58
2023-02-11T12:22:00.889Z,25.80
2023-02-11T12:24:31.182Z,25.80
2023-02-11T12:27:02.073Z,27.48
2023-02-11T12:29:41.682Z,28.38
2023-02-11T12:32:09.750Z,30.20
2023-02-11T12:34:46.109Z,27.48
2023-02-11T12:37:25.769Z,22.90
2023-02-11T12:40:11.685Z,25.48
2023-02-11T12:42:42.541Z,26.05
2023-02-11T12:45:12.948Z,26.48
2023-02-11T12:47:40.737Z,21.58
2023-02-11T12:50:08.301Z,20.67
2023-02-11T12:52:36.113Z,22.98
2023-02-11T12:55:09.350Z,27.63
2023-02-11T12:57:37.993Z,24.58
2023-02-11T13:00:37.851Z,22.85
2023-02-11T13:03:24.225Z,25.98
2023-02-11T13:05:56.944Z,25.02
2023-02-11T13:08:33.055Z,24.50
2023-02-11T13:11:07.473Z,22.17
2023-02-11T13:13:58.176Z,26.40
2023-02-11T13:16:40.796Z,24.33
2023-02-11T13:19:08.689Z,24.25
2023-02-11T13:21:40.110Z,22.70
2023-02-11T13:24:25.534Z,24.07
2023-02-11T13:26:55.751Z,24.00
2023-02-11T13:30:04.113Z,23.10
2023-02-11T13:32:50.378Z,21.45
2023-02-11T13:35:28.527Z,23.67
2023-02-11T13:37:56.700Z,24.58
2023-02-11T13:40:25.937Z,28.13
2023-02-11T13:42:56.265Z,24.80
2023-02-11T13:45:42.557Z,27.50
2023-02-11T13:48:19.823Z,29.23
2023-02-11T13:50:52.358Z,21.15
2023-02-11T13:53:20.410Z,24.65
2023-02-11T13:55:50.286Z,25.70
2023-02-11T13:58:19.554Z,25.40
2023-02-11T14:00:49.398Z,23.30
2023-02-11T14:03:19.972Z,26.13
2023-02-11T14:06:07.822Z,27.25
2023-02-11T14:08:38.462Z,27.90
2023-02-11T14:11:09.339Z,26.33
2023-02-11T14:13:56.893Z,22.88
2023-02-11T14:16:37.398Z,25.60
2023-02-11T14:19:06.707Z,27.85
2023-02-11T14:21:36.439Z,27.05
2023-02-11T14:24:06.545Z,22.45
2023-02-11T14:26:40.259Z,20.83
2023-02-11T14:29:19.992Z,22.10
2023-02-11T14:31:54.900Z,22.23
2023-02-11T14:34:43.229Z,20.75
2023-02-11T14:37:28.448Z,24.75
2023-02-11T14:40:18.229Z,25.23
2023-02-11T14:42:45.942Z,25.83
2023-02-11T14:45:19.871Z,25.45
2023-02-11T14:47:59.671Z,21.70
2023-02-11T14:50:31.935Z,19.88
2023-02-11T14:53:01.339Z,24.08
2023-02-11T14:55:30.864Z,23.65
2023-02-11T14:58:04.999Z,22.95
2023-02-11T15:00:32.409Z,30.27
2023-02-11T15:03:00.322Z,23.00
2023-02-11T15:05:28.608Z,27.83
2023-02-11T15:07:58.452Z,28.25
2023-02-11T15:10:31.060Z,30.48
2023-02-11T15:12:59.683Z,23.20
2023-02-11T15:15:27.710Z,23.02
2023-02-11T15:17:56.312Z,26.10
2023-02-11T15:20:28.456Z,28.55
2023-02-11T15:23:02.904Z,28.67
2023-02-11T15:25:32.377Z,24.73
2023-02-11T15:28:01.920Z,31.33
2023-02-11T15:30:31.091Z,25.25
2023-02-11T15:33:00.021Z,27.65
2023-02-11T15:35:28.984Z,26.27
2023-02-11T15:37:58.064Z,30.20
2023-02-11T15:40:27.286Z,26.98
2023-02-11T15:42:59.010Z,32.28
2023-02-11T15:45:29.413Z,31.33
2023-02-11T15:47:59.888Z,28.25
2023-02-11T15:50:32.082Z,29.70
2023-02-11T15:53:01.302Z,30.77
2023-02-11T15:55:29.012Z,31.65
2023-02-11T15:57:59.671Z,28.52
2023-02-11T16:00:32.263Z,34.15
2023-02-11T16:02:59.941Z,29.80
2023-02-11T16:05:37.504Z,26.38
2023-02-11T16:08:25.626Z,28.75
2023-02-11T16:10:57.589Z,29.23
2023-02-11T16:13:26.566Z,29.17
2023-02-11T16:16:04.212Z,27.17
2023-02-11T16:18:38.636Z,24.80
2023-02-11T16:21:12.344Z,30.35
2023-02-11T16:23:41.165Z,23.15
2023-02-11T16:26:11.811Z,26.27
2023-02-11T16:28:40.045Z,25.38
2023-02-11T16:31:18.765Z,29.77
2023-02-11T16:34:01.265Z,24.48
2023-02-11T16:36:28.785Z,23.98
2023-02-11T16:38:56.670Z,24.58
2023-02-11T16:41:24.099Z,26.35
2023-02-11T16:43:51.793Z,26.70
2023-02-11T16:46:21.941Z,25.63
2023-02-11T16:48:49.768Z,25.85
2023-02-11T16:51:17.110Z,25.55
2023-02-11T16:53:44.998Z,24.08
2023-02-11T16:56:15.814Z,26.23
2023-02-11T16:58:43.999Z,24.35
2023-02-11T17:01:13.965Z,23.33
2023-02-11T17:03:42.294Z,25.23
2023-02-11T17:06:10.683Z,27.27
2023-02-11T17:08:38.367Z,25.63
2023-02-11T17:11:05.920Z,21.13
2023-02-11T17:13:33.856Z,25.13
2023-02-11T17:16:01.346Z,20.88
2023-02-11T17:18:29.197Z,25.73
2023-02-11T17:20:56.639Z,27.38
2023-02-11T17:23:24.309Z,25.77
2023-02-11T17:25:55.496Z,26.13
2023-02-11T17:28:23.192Z,22.13
2023-02-11T17:30:50.887Z,23.63
2023-02-11T17:33:18.732Z,20.23
2023-02-11T17:35:46.165Z,26.40
2023-02-11T17:38:14.058Z,23.55
2023-02-11T17:40:41.700Z,21.70
2023-02-11T17:43:09.652Z,19.63
2023-02-11T17:45:48.249Z,22.10
2023-02-11T17:48:16.003Z,22.33
2023-02-11T17:50:43.630Z,26.80
2023-02-11T17:53:11.369Z,27.15
2023-02-11T17:55:38.758Z,23.63
2023-02-11T17:58:06.561Z,22.38
2023-02-11T18:00:34.079Z,24.65
2023-02-11T18:03:01.759Z,25.40
2023-02-11T18:05:33.927Z,22.85
2023-02-11T18:08:01.961Z,22.83
2023-02-11T18:10:29.449Z,21.80
2023-02-11T18:12:57.540Z,21.48
2023-02-11T18:15:24.969Z,21.80
2023-02-11T18:17:52.806Z,20.38
2023-02-11T18:20:20.439Z,21.42
2023-02-11T18:22:48.430Z,21.77
2023-02-11T18:25:16.335Z,23.33
2023-02-11T18:27:44.236Z,23.55
2023-02-11T18:30:14.733Z,24.50
2023-02-11T18:32:42.423Z,18.58
2023-02-11T18:35:12.671Z,22.25
2023-02-11T18:40:10.345Z,22.35
2023-02-11T18:42:38.402Z,21.10
2023-02-11T18:45:06.896Z,20.95
2023-02-11T18:47:34.936Z,21.80
2023-02-11T18:50:02.282Z,20.65
2023-02-11T18:52:30.073Z,22.25
2023-02-11T18:54:57.614Z,25.17
2023-02-11T18:57:25.307Z,24.73
2023-02-11T18:59:52.755Z,21.73
2023-02-11T19:02:20.407Z,22.27
2023-02-11T19:04:48.128Z,21.67
2023-02-11T19:07:16.030Z,23.23
2023-02-11T19:09:43.726Z,22.35
2023-02-11T19:12:11.631Z,22.70
2023-02-11T19:14:39.241Z,25.63
2023-02-11T19:17:07.686Z,28.52
2023-02-11T19:19:35.627Z,25.95
2023-02-11T19:22:05.135Z,23.60
2023-02-11T19:24:33.056Z,23.98
2023-02-11T19:27:01.883Z,24.17
2023-02-11T19:29:30.488Z,24.40
2023-02-11T19:31:58.261Z,21.75
2023-02-11T19:34:25.861Z,21.13
2023-02-11T19:36:53.851Z,25.52
2023-02-11T19:39:21.226Z,25.25
2023-02-11T19:41:49.047Z,23.15
2023-02-11T19:44:16.492Z,25.38
2023-02-11T19:46:44.838Z,26.42
2023-02-11T19:49:15.656Z,23.10
2023-02-11T19:51:43.479Z,21.70
2023-02-11T19:54:10.870Z,24.83
2023-02-11T19:56:39.019Z,25.85
2023-02-11T19:59:06.478Z,26.83
2023-02-11T20:01:34.526Z,25.77
2023-02-11T20:04:02.135Z,31.35
2023-02-11T20:06:31.102Z,26.90
2023-02-11T20:08:59.909Z,25.83
2023-02-11T20:11:29.002Z,28.80
2023-02-11T20:13:56.987Z,24.90
2023-02-11T20:16:37.096Z,26.58
2023-02-11T20:19:12.527Z,23.25
2023-02-11T20:21:40.439Z,24.63
2023-02-11T20:24:07.991Z,24.45
2023-02-11T20:26:36.158Z,21.52
2023-02-11T20:29:03.689Z,24.85
2023-02-11T20:31:32.021Z,23.70
2023-02-11T20:33:59.947Z,23.65
2023-02-11T20:36:28.646Z,26.48
2023-02-11T20:38:56.720Z,21.45
2023-02-11T20:41:25.181Z,21.92
2023-02-11T20:43:53.798Z,23.13
2023-02-11T20:46:25.684Z,21.42
2023-02-11T20:48:54.982Z,24.58
2023-02-11T20:51:26.831Z,22.40
2023-02-11T20:53:54.643Z,21.58
2023-02-11T20:56:23.619Z,25.48
2023-02-11T20:58:51.632Z,25.38
2023-02-11T21:01:23.459Z,21.55
2023-02-11T21:03:55.385Z,25.30
2023-02-11T21:06:23.476Z,25.08
2023-02-11T21:08:51.176Z,24.15
2023-02-11T21:11:18.913Z,28.67
2023-02-11T21:13:46.772Z,27.98
2023-02-11T21:16:15.357Z,26.27
2023-02-11T21:18:43.295Z,27.08
2023-02-11T21:21:10.744Z,27.10
2023-02-11T21:23:38.810Z,28.17
2023-02-11T21:26:06.669Z,26.08
2023-02-11T21:28:34.755Z,24.80
2023-02-11T21:31:02.989Z,26.15
2023-02-11T21:33:31.104Z,26.45
2023-02-11T21:35:59.261Z,30.73
2023-02-11T21:38:27.353Z,28.02
2023-02-11T21:40:55.382Z,26.63
2023-02-11T21:43:23.113Z,25.77
2023-02-11T21:45:51.038Z,25.35
2023-02-11T21:48:18.721Z,26.27
2023-02-11T21:50:46.988Z,29.92
2023-02-11T21:53:14.719Z,26.73
2023-02-11T21:55:42.354Z,27.90
2023-02-11T21:58:10.920Z,26.60
2023-02-11T22:00:38.542Z,25.60
2023-02-11T22:03:06.252Z,32.83
2023-02-11T22:05:44.783Z,30.38
2023-02-11T22:08:12.410Z,26.67
2023-02-11T22:10:39.768Z,30.05
2023-02-11T22:13:07.447Z,30.15
2023-02-11T22:15:34.869Z,28.70
2023-02-11T22:18:02.534Z,25.05
2023-02-11T22:20:29.887Z,25.27
2023-02-11T22:22:58.290Z,23.38
2023-02-11T22:25:25.718Z,26.10
2023-02-11T22:27:53.421Z,27.27
2023-02-11T22:30:20.858Z,28.08
2023-02-11T22:32:48.534Z,24.48
2023-02-11T22:35:15.949Z,29.83
2023-02-11T22:37:43.752Z,27.00
2023-02-11T22:40:11.480Z,26.48
2023-02-11T22:42:39.176Z,24.67
2023-02-11T22:45:06.822Z,26.33
2023-02-11T22:47:34.594Z,25.48
2023-02-11T22:50:01.919Z,25.70
2023-02-11T22:52:29.639Z,27.40
2023-02-11T22:54:57.043Z,30.00
2023-02-11T22:57:26.162Z,28.15
2023-02-11T22:59:53.726Z,25.73
2023-02-11T23:02:21.681Z,28.58
2023-02-11T23:04:50.040Z,28.33
2023-02-11T23:07:17.969Z,25.30
2023-02-11T23:09:45.407Z,27.70
2023-02-11T23:12:13.141Z,25.10
2023-02-11T23:14:40.489Z,25.90
2023-02-11T23:17:08.256Z,25.20
2023-02-11T23:19:35.626Z,32.97
2023-02-11T23:22:03.388Z,26.25
2023-02-11T23:24:30.771Z,27.25
2023-02-11T23:26:58.549Z,28.60
2023-02-11T23:29:26.064Z,28.75
2023-02-11T23:31:55.289Z,33.00
2023-02-11T23:34:24.384Z,28.23
2023-02-11T23:36:52.840Z,28.33
2023-02-11T23:39:20.511Z,30.58
2023-02-11T23:41:48.212Z,27.08
2023-02-11T23:44:15.606Z,30.45
2023-02-11T23:46:43.333Z,29.73
2023-02-11T23:49:10.753Z,29.75
2023-02-11T23:51:38.405Z,24.63
2023-02-11T23:54:05.867Z,25.20
2023-02-11T23:56:33.527Z,23.55
2023-02-11T23:59:00.954Z,28.98
